M/V Lavelle Devall — WCW4022 — position and weather

sailwx.info

Track history (hours):
 
Tides and Currents Weather Stations Pressure Air Temp Water Temp Dewpoint Dewpoint Depression Visibility Wind Speed Wind Dir Waves Ship Positions

M/V Lavelle Devall

Owner: LAVELLE DEVALL INC, Sulphur, LA. More information available from US FCC via Universal Licensing System and Coast Guard Vessel Documentation Center.

Last reported at 2018-Feb-23 23:25 UTC. Time now 2018-Feb-24 14:15 UTC.
Position N 29°47' W 095°06'.

Length 18 m.

Type: Towing. MMSI: 366972290.

Date/timePositionNaut miles runAvg speedWind from/ knotsBaromVisibWave heightAir tempDewpointWater temp
2018-Feb-23 23:25N 29°47' W 095°06'1 0.8
2018-Feb-23 22:39N 29°46' W 095°06'1 4.3
2018-Feb-23 22:28N 29°46' W 095°05'3 6.6
2018-Feb-23 22:00N 29°44' W 095°03'1 0.9
2018-Feb-23 20:39N 29°44' W 095°01'0 2.7
2018-Feb-23 20:30N 29°43' W 095°01'3 6.6
2018-Feb-23 20:00N 29°41' W 094°59'4 7.7
2018-Feb-23 19:30N 29°37' W 094°57'4 7.6
2018-Feb-23 19:00N 29°34' W 094°55'4 8.0
2018-Feb-23 18:30N 29°31' W 094°53'5 8.4
2018-Feb-23 17:56N 29°26' W 094°50'4 0.2
2018-Feb-22 18:08N 29°30' W 094°52'1 6.3
2018-Feb-22 18:00N 29°31' W 094°53'3 6.5
2018-Feb-22 17:30N 29°33' W 094°55'3 6.8
2018-Feb-22 17:00N 29°36' W 094°57'4 7.1
2018-Feb-22 16:30N 29°40' W 094°58'3 7.0
2018-Feb-22 16:00N 29°42' W 095°01'3 5.1
2018-Feb-22 15:27N 29°44' W 095°03'2 4.4
2018-Feb-22 14:56N 29°45' W 095°06'3 6.2
2018-Feb-22 14:28N 29°44' W 095°09'2 0.0
2018-Feb-20 18:45N 29°45' W 095°11'3 6.2
2018-Feb-20 18:18N 29°44' W 095°07'3 0.5
2018-Feb-20 12:27N 29°47' W 095°06'2 0.4
2018-Feb-20 08:23N 29°45' W 095°06'1 2.4
2018-Feb-20 07:57N 29°46' W 095°06'1 0.1
2018-Feb-20 00:07N 29°46' W 095°05'1 6.7
2018-Feb-19 23:58N 29°46' W 095°04'3 5.9
2018-Feb-19 23:29N 29°44' W 095°02'3 5.7
2018-Feb-19 23:00N 29°42' W 094°60'3 6.1
2018-Feb-19 22:30N 29°39' W 094°58'3 6.7
2018-Feb-19 22:00N 29°36' W 094°57'3 6.1
2018-Feb-19 21:30N 29°33' W 094°55'3 6.3
2018-Feb-19 21:00N 29°31' W 094°53'7 6.0
2018-Feb-19 19:50N 29°24' W 094°49'5 1.7
2018-Feb-19 16:37N 29°21' W 094°44'0 0.1
2018-Feb-19 16:25N 29°21' W 094°44'0 0.1
2018-Feb-19 15:43N 29°21' W 094°44'0 0.0
2018-Feb-19 14:04N 29°21' W 094°44'0 0.0
2018-Feb-19 13:40N 29°21' W 094°44'0 0.0
2018-Feb-19 13:22N 29°21' W 094°44'0 0.0
2018-Feb-19 12:13N 29°21' W 094°44'0 0.0
2018-Feb-19 11:49N 29°21' W 094°44'0 0.0
2018-Feb-19 11:28N 29°21' W 094°44'0 0.0
2018-Feb-19 10:55N 29°21' W 094°44'0 0.0
2018-Feb-19 10:25N 29°21' W 094°44'0 0.0
2018-Feb-19 09:58N 29°21' W 094°44'0 0.0
2018-Feb-19 09:28N 29°21' W 094°44'0 0.0
2018-Feb-19 08:49N 29°21' W 094°44'0 0.0
2018-Feb-19 08:22N 29°21' W 094°44'0 0.0
2018-Feb-19 07:55N 29°21' W 094°44'0 0.0
2018-Feb-19 07:28N 29°21' W 094°44'0 0.1
2018-Feb-19 06:58N 29°21' W 094°44'2 3.3
2018-Feb-19 06:25N 29°21' W 094°46'2 4.0
2018-Feb-19 05:52N 29°21' W 094°49'0 0.1
2018-Feb-19 05:22N 29°21' W 094°49'0 0.0
2018-Feb-19 05:01N 29°21' W 094°49'5 1.3
2018-Feb-19 01:28N 29°25' W 094°50'6 5.8
2018-Feb-19 00:30N 29°30' W 094°53'3 6.4
2018-Feb-19 00:00N 29°33' W 094°55'3 6.7
2018-Feb-18 23:30N 29°36' W 094°57'3 6.7
2018-Feb-18 23:00N 29°39' W 094°58'4 7.0
2018-Feb-18 22:29N 29°42' W 095°00'3 5.7
2018-Feb-18 22:00N 29°44' W 095°03'3 0.4
2018-Feb-18 13:43N 29°46' W 095°05'1 0.2
2018-Feb-18 09:57N 29°46' W 095°06'2 4.3
2018-Feb-18 09:28N 29°45' W 095°04'3 6.4
2018-Feb-18 08:59N 29°43' W 095°01'3 6.1
2018-Feb-18 08:31N 29°41' W 094°59'3 6.4
2018-Feb-18 08:00N 29°38' W 094°58'3 6.6
2018-Feb-18 07:31N 29°35' W 094°56'3 6.6
2018-Feb-18 07:00N 29°32' W 094°54'3 6.7
2018-Feb-18 06:30N 29°30' W 094°52'7 6.6
2018-Feb-18 05:27N 29°23' W 094°49'0 0.1
2018-Feb-18 01:59N 29°23' W 094°49'4 5.6
2018-Feb-18 01:16N 29°27' W 094°51'2 5.9
2018-Feb-18 00:55N 29°29' W 094°52'3 6.3
2018-Feb-18 00:30N 29°31' W 094°53'3 6.5
2018-Feb-18 00:00N 29°34' W 094°55'3 6.8
2018-Feb-17 23:30N 29°37' W 094°57'4 7.4
2018-Feb-17 23:00N 29°40' W 094°59'3 6.7
2018-Feb-17 22:29N 29°43' W 095°01'3 6.3
2018-Feb-17 21:57N 29°45' W 095°04'4 6.4
2018-Feb-17 21:23N 29°44' W 095°08'  
2018-Feb-14 21:06N 29°44' W 095°09'2 5.9
2018-Feb-14 20:47N 29°44' W 095°07'3 4.1
2018-Feb-14 19:58N 29°44' W 095°03'1 0.2
2018-Feb-14 16:27N 29°44' W 095°02'3 2.8
2018-Feb-14 15:31N 29°46' W 095°04'0 6.6
2018-Feb-14 15:27N 29°45' W 095°04'0 0.2
2018-Feb-14 14:10N 29°45' W 095°04'2 6.8
2018-Feb-14 13:57N 29°46' W 095°06'1 2.9
2018-Feb-14 13:29N 29°46' W 095°04'2 0.4
2018-Feb-14 08:27N 29°44' W 095°03'3 4.7
2018-Feb-14 07:54N 29°46' W 095°05'2 4.1
2018-Feb-14 07:23N 29°44' W 095°03'  
Track history (hours):
 
Tides and Currents Weather Stations Pressure Air Temp Water Temp Dewpoint Dewpoint Depression Visibility Wind Speed Wind Dir Waves Ship Positions

M/V Lavelle Devall

Owner: LAVELLE DEVALL INC, Sulphur, LA. More information available from US FCC via Universal Licensing System and Coast Guard Vessel Documentation Center.

Last reported at 2018-Feb-23 23:25 UTC. Time now 2018-Feb-24 14:15 UTC.
Position N 29°47' W 095°06'.

Length 18 m.

Type: Towing. MMSI: 366972290.

Date/timePositionNaut miles runAvg speedWind from/ knotsBaromVisibWave heightAir tempDewpointWater temp
2018-Feb-23 23:25N 29°47' W 095°06'1 0.8
2018-Feb-23 22:39N 29°46' W 095°06'1 4.3
2018-Feb-23 22:28N 29°46' W 095°05'3 6.6
2018-Feb-23 22:00N 29°44' W 095°03'1 0.9
2018-Feb-23 20:39N 29°44' W 095°01'0 2.7
2018-Feb-23 20:30N 29°43' W 095°01'3 6.6
2018-Feb-23 20:00N 29°41' W 094°59'4 7.7
2018-Feb-23 19:30N 29°37' W 094°57'4 7.6
2018-Feb-23 19:00N 29°34' W 094°55'4 8.0
2018-Feb-23 18:30N 29°31' W 094°53'5 8.4
2018-Feb-23 17:56N 29°26' W 094°50'4 0.2
2018-Feb-22 18:08N 29°30' W 094°52'1 6.3
2018-Feb-22 18:00N 29°31' W 094°53'3 6.5
2018-Feb-22 17:30N 29°33' W 094°55'3 6.8
2018-Feb-22 17:00N 29°36' W 094°57'4 7.1
2018-Feb-22 16:30N 29°40' W 094°58'3 7.0
2018-Feb-22 16:00N 29°42' W 095°01'3 5.1
2018-Feb-22 15:27N 29°44' W 095°03'2 4.4
2018-Feb-22 14:56N 29°45' W 095°06'3 6.2
2018-Feb-22 14:28N 29°44' W 095°09'2 0.0
2018-Feb-20 18:45N 29°45' W 095°11'3 6.2
2018-Feb-20 18:18N 29°44' W 095°07'3 0.5
2018-Feb-20 12:27N 29°47' W 095°06'2 0.4
2018-Feb-20 08:23N 29°45' W 095°06'1 2.4
2018-Feb-20 07:57N 29°46' W 095°06'1 0.1
2018-Feb-20 00:07N 29°46' W 095°05'1 6.7
2018-Feb-19 23:58N 29°46' W 095°04'3 5.9
2018-Feb-19 23:29N 29°44' W 095°02'3 5.7
2018-Feb-19 23:00N 29°42' W 094°60'3 6.1
2018-Feb-19 22:30N 29°39' W 094°58'3 6.7
2018-Feb-19 22:00N 29°36' W 094°57'3 6.1
2018-Feb-19 21:30N 29°33' W 094°55'3 6.3
2018-Feb-19 21:00N 29°31' W 094°53'7 6.0
2018-Feb-19 19:50N 29°24' W 094°49'5 1.7
2018-Feb-19 16:37N 29°21' W 094°44'0 0.1
2018-Feb-19 16:25N 29°21' W 094°44'0 0.1
2018-Feb-19 15:43N 29°21' W 094°44'0 0.0
2018-Feb-19 14:04N 29°21' W 094°44'0 0.0
2018-Feb-19 13:40N 29°21' W 094°44'0 0.0
2018-Feb-19 13:22N 29°21' W 094°44'0 0.0
2018-Feb-19 12:13N 29°21' W 094°44'0 0.0
2018-Feb-19 11:49N 29°21' W 094°44'0 0.0
2018-Feb-19 11:28N 29°21' W 094°44'0 0.0
2018-Feb-19 10:55N 29°21' W 094°44'0 0.0
2018-Feb-19 10:25N 29°21' W 094°44'0 0.0
2018-Feb-19 09:58N 29°21' W 094°44'0 0.0
2018-Feb-19 09:28N 29°21' W 094°44'0 0.0
2018-Feb-19 08:49N 29°21' W 094°44'0 0.0
2018-Feb-19 08:22N 29°21' W 094°44'0 0.0
2018-Feb-19 07:55N 29°21' W 094°44'0 0.0
2018-Feb-19 07:28N 29°21' W 094°44'0 0.1
2018-Feb-19 06:58N 29°21' W 094°44'2 3.3
2018-Feb-19 06:25N 29°21' W 094°46'2 4.0
2018-Feb-19 05:52N 29°21' W 094°49'0 0.1
2018-Feb-19 05:22N 29°21' W 094°49'0 0.0
2018-Feb-19 05:01N 29°21' W 094°49'5 1.3
2018-Feb-19 01:28N 29°25' W 094°50'6 5.8
2018-Feb-19 00:30N 29°30' W 094°53'3 6.4
2018-Feb-19 00:00N 29°33' W 094°55'3 6.7
2018-Feb-18 23:30N 29°36' W 094°57'3 6.7
2018-Feb-18 23:00N 29°39' W 094°58'4 7.0
2018-Feb-18 22:29N 29°42' W 095°00'3 5.7
2018-Feb-18 22:00N 29°44' W 095°03'3 0.4
2018-Feb-18 13:43N 29°46' W 095°05'1 0.2
2018-Feb-18 09:57N 29°46' W 095°06'2 4.3
2018-Feb-18 09:28N 29°45' W 095°04'3 6.4
2018-Feb-18 08:59N 29°43' W 095°01'3 6.1
2018-Feb-18 08:31N 29°41' W 094°59'3 6.4
2018-Feb-18 08:00N 29°38' W 094°58'3 6.6
2018-Feb-18 07:31N 29°35' W 094°56'3 6.6
2018-Feb-18 07:00N 29°32' W 094°54'3 6.7
2018-Feb-18 06:30N 29°30' W 094°52'7 6.6
2018-Feb-18 05:27N 29°23' W 094°49'0 0.1
2018-Feb-18 01:59N 29°23' W 094°49'4 5.6
2018-Feb-18 01:16N 29°27' W 094°51'2 5.9
2018-Feb-18 00:55N 29°29' W 094°52'3 6.3
2018-Feb-18 00:30N 29°31' W 094°53'3 6.5
2018-Feb-18 00:00N 29°34' W 094°55'3 6.8
2018-Feb-17 23:30N 29°37' W 094°57'4 7.4
2018-Feb-17 23:00N 29°40' W 094°59'3 6.7
2018-Feb-17 22:29N 29°43' W 095°01'3 6.3
2018-Feb-17 21:57N 29°45' W 095°04'4 6.4
2018-Feb-17 21:23N 29°44' W 095°08'  
2018-Feb-14 21:06N 29°44' W 095°09'2 5.9
2018-Feb-14 20:47N 29°44' W 095°07'3 4.1
2018-Feb-14 19:58N 29°44' W 095°03'1 0.2
2018-Feb-14 16:27N 29°44' W 095°02'3 2.8
2018-Feb-14 15:31N 29°46' W 095°04'0 6.6
2018-Feb-14 15:27N 29°45' W 095°04'0 0.2
2018-Feb-14 14:10N 29°45' W 095°04'2 6.8
2018-Feb-14 13:57N 29°46' W 095°06'1 2.9
2018-Feb-14 13:29N 29°46' W 095°04'2 0.4
2018-Feb-14 08:27N 29°44' W 095°03'3 4.7
2018-Feb-14 07:54N 29°46' W 095°05'2 4.1
2018-Feb-14 07:23N 29°44' W 095°03'  

Dump ship's entire track history